SIM037 LIMC-LIRA
Flight info
| Callsign | SIM037 |
|---|---|
| Flight time | N/A |
| Altitude | 17000 |
| Route | ROBAS DCT OLNUK DCT EKDIR DCT KUGIX DCT AMTEL DCT OKBIS DCT GITOD |
| Aircraft | DC6/M-SDFGIRWYZ/LB1D1 |
Departure
| Time | 2026-04-30 15:04 |
|---|---|
| Airport | Milan Malpensa International Airport (LIMC) |
Arrival
| Time | N/A |
|---|---|
| Airport | Ciampino–G. B. Pastine International Airport (LIRA) |
| Time | Latitude | Longitude | Altitude | Speed | Heading |
|---|---|---|---|---|---|
| 2026-04-30 14:38 | 45.62728 | 8.71921 | 759 ft | 0 kts | 79° |
| 2026-04-30 14:56 | 45.62679 | 8.72012 | 757 ft | 13 kts | 141° |
| 2026-04-30 14:56 | 45.62685 | 8.72087 | 758 ft | 11 kts | 86° |
| 2026-04-30 14:57 | 45.62615 | 8.72150 | 759 ft | 16 kts | 168° |
| 2026-04-30 14:57 | 45.62355 | 8.72227 | 758 ft | 24 kts | 167° |
| 2026-04-30 14:58 | 45.61998 | 8.72328 | 757 ft | 24 kts | 168° |
| 2026-04-30 14:58 | 45.61845 | 8.72370 | 758 ft | 21 kts | 169° |
| 2026-04-30 14:58 | 45.61568 | 8.72448 | 757 ft | 19 kts | 170° |
| 2026-04-30 14:59 | 45.61289 | 8.72520 | 759 ft | 23 kts | 169° |
| 2026-04-30 15:00 | 45.61085 | 8.72685 | 757 ft | 4 kts | 80° |
| 2026-04-30 15:00 | 45.61099 | 8.72799 | 759 ft | 19 kts | 80° |
| 2026-04-30 15:01 | 45.61262 | 8.73174 | 759 ft | 23 kts | 35° |
| 2026-04-30 15:01 | 45.61399 | 8.73259 | 760 ft | 20 kts | 349° |
| 2026-04-30 15:01 | 45.61607 | 8.73251 | 758 ft | 10 kts | 57° |
| 2026-04-30 15:02 | 45.61627 | 8.73345 | 759 ft | 6 kts | 79° |
| 2026-04-30 15:02 | 45.61632 | 8.73400 | 759 ft | 0 kts | 90° |
| 2026-04-30 15:03 | 45.61638 | 8.73730 | 757 ft | 0 kts | 6° |
| 2026-04-30 15:03 | 45.61736 | 8.73709 | 757 ft | 40 kts | 346° |
| 2026-04-30 15:04 | 45.62877 | 8.73339 | 889 ft | 108 kts | 345° |
| 2026-04-30 15:04 | 45.65342 | 8.72803 | 1588 ft | 131 kts | 25° |
| 2026-04-30 15:05 | 45.66626 | 8.76248 | 2444 ft | 146 kts | 50° |
| 2026-04-30 15:06 | 45.68200 | 8.78194 | 3151 ft | 150 kts | 40° |
| 2026-04-30 15:06 | 45.70120 | 8.79251 | 3705 ft | 151 kts | 11° |
| 2026-04-30 15:07 | 45.71802 | 8.81086 | 4141 ft | 165 kts | 42° |
| 2026-04-30 15:07 | 45.71978 | 8.84187 | 4434 ft | 177 kts | 129° |
| 2026-04-30 15:08 | 45.69852 | 8.85775 | 5058 ft | 170 kts | 145° |
| 2026-04-30 15:08 | 45.67628 | 8.89475 | 5831 ft | 170 kts | 116° |
| 2026-04-30 15:09 | 45.66113 | 8.92157 | 6450 ft | 174 kts | 126° |
| 2026-04-30 15:09 | 45.64589 | 8.94848 | 7009 ft | 177 kts | 128° |
| 2026-04-30 15:10 | 45.63017 | 8.97560 | 7547 ft | 178 kts | 127° |
| 2026-04-30 15:11 | 45.59858 | 9.03081 | 8660 ft | 180 kts | 126° |
| 2026-04-30 15:11 | 45.58254 | 9.05860 | 9217 ft | 181 kts | 126° |
| 2026-04-30 15:12 | 45.55856 | 9.10035 | 10094 ft | 182 kts | 126° |
| 2026-04-30 15:13 | 45.54239 | 9.12833 | 10593 ft | 183 kts | 126° |
| 2026-04-30 15:14 | 45.50975 | 9.18487 | 11584 ft | 186 kts | 126° |
| 2026-04-30 15:14 | 45.48395 | 9.22675 | 12307 ft | 190 kts | 133° |
| 2026-04-30 15:16 | 45.42470 | 9.27224 | 13511 ft | 200 kts | 163° |
| 2026-04-30 15:17 | 45.36934 | 9.28636 | 14479 ft | 204 kts | 168° |
| 2026-04-30 15:18 | 45.29839 | 9.30529 | 15447 ft | 212 kts | 166° |
| 2026-04-30 15:19 | 45.25467 | 9.31821 | 15995 ft | 215 kts | 166° |